sensor_id;sensor_type;location;lat;lon;timestamp;P1;durP1;ratioP1;P2;durP2;ratioP2
79670;SDS011;69137;50.878;8.050;2024-03-23T00:52:52;7.70;;;4.22;;
79670;SDS011;69137;50.878;8.050;2024-03-23T00:55:18;6.40;;;3.63;;
79670;SDS011;69137;50.878;8.050;2024-03-23T00:57:43;6.33;;;3.20;;
79670;SDS011;69137;50.878;8.050;2024-03-23T01:00:09;6.23;;;3.50;;
79670;SDS011;69137;50.878;8.050;2024-03-23T01:02:35;5.30;;;3.45;;
79670;SDS011;69137;50.878;8.050;2024-03-23T01:05:01;5.30;;;2.90;;
79670;SDS011;69137;50.878;8.050;2024-03-23T01:07:26;5.90;;;3.13;;
79670;SDS011;69137;50.878;8.050;2024-03-23T01:09:51;6.87;;;4.00;;
79670;SDS011;69137;50.878;8.050;2024-03-23T01:12:18;7.10;;;4.53;;
79670;SDS011;69137;50.878;8.050;2024-03-23T01:14:43;6.60;;;3.22;;
79670;SDS011;69137;50.878;8.050;2024-03-23T01:17:08;6.77;;;3.20;;
79670;SDS011;69137;50.878;8.050;2024-03-23T01:19:36;4.55;;;2.67;;
79670;SDS011;69137;50.878;8.050;2024-03-23T01:22:04;4.47;;;2.70;;
79670;SDS011;69137;50.878;8.050;2024-03-23T01:24:29;4.95;;;3.00;;
79670;SDS011;69137;50.878;8.050;2024-03-23T01:26:55;4.27;;;2.43;;
79670;SDS011;69137;50.878;8.050;2024-03-23T01:29:20;4.27;;;2.47;;
79670;SDS011;69137;50.878;8.050;2024-03-23T01:31:45;3.63;;;2.40;;
79670;SDS011;69137;50.878;8.050;2024-03-23T01:34:11;3.00;;;1.90;;
79670;SDS011;69137;50.878;8.050;2024-03-23T01:36:36;6.13;;;2.17;;
79670;SDS011;69137;50.878;8.050;2024-03-23T01:39:01;2.07;;;1.27;;
79670;SDS011;69137;50.878;8.050;2024-03-23T01:41:26;4.33;;;1.40;;
79670;SDS011;69137;50.878;8.050;2024-03-23T01:43:52;3.00;;;1.37;;
79670;SDS011;69137;50.878;8.050;2024-03-23T01:46:20;3.13;;;1.52;;
79670;SDS011;69137;50.878;8.050;2024-03-23T01:48:45;2.08;;;1.30;;
79670;SDS011;69137;50.878;8.050;2024-03-23T01:51:11;3.13;;;1.30;;
79670;SDS011;69137;50.878;8.050;2024-03-23T01:53:38;4.00;;;1.30;;
79670;SDS011;69137;50.878;8.050;2024-03-23T01:56:03;2.53;;;1.40;;
79670;SDS011;69137;50.878;8.050;2024-03-23T01:58:28;3.53;;;1.48;;
79670;SDS011;69137;50.878;8.050;2024-03-23T02:00:54;1.83;;;1.30;;
79670;SDS011;69137;50.878;8.050;2024-03-23T02:03:28;2.17;;;1.30;;
79670;SDS011;69137;50.878;8.050;2024-03-23T02:05:53;2.00;;;1.33;;
79670;SDS011;69137;50.878;8.050;2024-03-23T02:08:20;2.72;;;1.30;;
79670;SDS011;69137;50.878;8.050;2024-03-23T02:10:47;4.20;;;1.63;;
79670;SDS011;69137;50.878;8.050;2024-03-23T02:13:14;2.22;;;1.40;;
79670;SDS011;69137;50.878;8.050;2024-03-23T02:15:40;2.60;;;1.40;;
79670;SDS011;69137;50.878;8.050;2024-03-23T02:18:07;3.90;;;1.50;;
79670;SDS011;69137;50.878;8.050;2024-03-23T02:20:32;3.80;;;1.25;;
79670;SDS011;69137;50.878;8.050;2024-03-23T02:22:58;2.77;;;1.23;;
79670;SDS011;69137;50.878;8.050;2024-03-23T02:25:23;3.83;;;1.40;;
79670;SDS011;69137;50.878;8.050;2024-03-23T02:27:48;3.60;;;1.33;;
79670;SDS011;69137;50.878;8.050;2024-03-23T02:30:14;3.38;;;1.30;;
79670;SDS011;69137;50.878;8.050;2024-03-23T02:32:40;3.70;;;1.27;;
79670;SDS011;69137;50.878;8.050;2024-03-23T02:35:05;2.20;;;1.40;;
79670;SDS011;69137;50.878;8.050;2024-03-23T02:37:31;1.88;;;1.25;;
79670;SDS011;69137;50.878;8.050;2024-03-23T02:39:57;4.07;;;1.25;;
79670;SDS011;69137;50.878;8.050;2024-03-23T02:42:23;2.72;;;1.50;;
79670;SDS011;69137;50.878;8.050;2024-03-23T02:44:48;2.33;;;1.43;;
79670;SDS011;69137;50.878;8.050;2024-03-23T02:47:13;2.13;;;1.47;;
79670;SDS011;69137;50.878;8.050;2024-03-23T02:49:39;3.00;;;1.25;;
79670;SDS011;69137;50.878;8.050;2024-03-23T02:52:04;1.80;;;1.00;;
79670;SDS011;69137;50.878;8.050;2024-03-23T02:54:29;3.10;;;1.30;;
79670;SDS011;69137;50.878;8.050;2024-03-23T02:56:55;2.20;;;1.27;;
79670;SDS011;69137;50.878;8.050;2024-03-23T02:59:20;7.22;;;1.80;;
79670;SDS011;69137;50.878;8.050;2024-03-23T03:01:45;2.30;;;1.10;;
79670;SDS011;69137;50.878;8.050;2024-03-23T03:04:11;1.45;;;1.10;;
79670;SDS011;69137;50.878;8.050;2024-03-23T03:06:36;3.40;;;1.20;;
79670;SDS011;69137;50.878;8.050;2024-03-23T03:09:02;3.92;;;1.38;;
79670;SDS011;69137;50.878;8.050;2024-03-23T03:11:27;4.32;;;1.83;;
79670;SDS011;69137;50.878;8.050;2024-03-23T03:13:52;3.92;;;1.38;;
79670;SDS011;69137;50.878;8.050;2024-03-23T03:16:18;3.60;;;1.43;;
79670;SDS011;69137;50.878;8.050;2024-03-23T03:18:43;2.10;;;1.20;;
79670;SDS011;69137;50.878;8.050;2024-03-23T03:21:11;2.40;;;1.35;;
79670;SDS011;69137;50.878;8.050;2024-03-23T03:23:39;3.80;;;1.88;;
79670;SDS011;69137;50.878;8.050;2024-03-23T03:26:05;4.75;;;1.30;;
79670;SDS011;69137;50.878;8.050;2024-03-23T03:28:34;3.92;;;1.30;;
79670;SDS011;69137;50.878;8.050;2024-03-23T03:30:59;2.65;;;1.30;;
79670;SDS011;69137;50.878;8.050;2024-03-23T03:33:26;3.00;;;1.40;;
79670;SDS011;69137;50.878;8.050;2024-03-23T03:35:51;2.67;;;1.30;;
79670;SDS011;69137;50.878;8.050;2024-03-23T03:38:17;2.47;;;1.80;;
79670;SDS011;69137;50.878;8.050;2024-03-23T03:40:43;3.15;;;1.40;;
79670;SDS011;69137;50.878;8.050;2024-03-23T03:43:08;2.53;;;1.10;;
79670;SDS011;69137;50.878;8.050;2024-03-23T03:45:33;5.17;;;1.60;;
79670;SDS011;69137;50.878;8.050;2024-03-23T03:47:59;2.47;;;1.43;;
79670;SDS011;69137;50.878;8.050;2024-03-23T03:50:24;2.17;;;1.27;;
79670;SDS011;69137;50.878;8.050;2024-03-23T03:52:50;1.60;;;0.98;;
79670;SDS011;69137;50.878;8.050;2024-03-23T03:55:15;1.50;;;1.00;;
79670;SDS011;69137;50.878;8.050;2024-03-23T03:57:41;3.15;;;1.00;;
79670;SDS011;69137;50.878;8.050;2024-03-23T04:00:06;1.42;;;0.82;;
79670;SDS011;69137;50.878;8.050;2024-03-23T04:02:36;0.88;;;0.70;;
79670;SDS011;69137;50.878;8.050;2024-03-23T04:05:01;1.13;;;0.95;;
79670;SDS011;69137;50.878;8.050;2024-03-23T04:07:28;1.42;;;0.90;;
79670;SDS011;69137;50.878;8.050;2024-03-23T04:09:53;1.50;;;1.02;;
79670;SDS011;69137;50.878;8.050;2024-03-23T04:12:19;1.13;;;0.70;;
79670;SDS011;69137;50.878;8.050;2024-03-23T04:14:45;1.60;;;0.90;;
79670;SDS011;69137;50.878;8.050;2024-03-23T04:17:10;0.82;;;0.70;;
79670;SDS011;69137;50.878;8.050;2024-03-23T04:19:35;1.25;;;1.00;;
79670;SDS011;69137;50.878;8.050;2024-03-23T04:22:01;0.90;;;0.87;;
79670;SDS011;69137;50.878;8.050;2024-03-23T04:24:26;1.73;;;1.10;;
79670;SDS011;69137;50.878;8.050;2024-03-23T04:26:51;1.50;;;0.67;;
79670;SDS011;69137;50.878;8.050;2024-03-23T04:29:17;0.73;;;0.68;;
79670;SDS011;69137;50.878;8.050;2024-03-23T04:31:42;0.63;;;0.63;;
79670;SDS011;69137;50.878;8.050;2024-03-23T04:34:08;1.27;;;0.82;;
79670;SDS011;69137;50.878;8.050;2024-03-23T04:36:33;1.08;;;0.75;;
79670;SDS011;69137;50.878;8.050;2024-03-23T04:38:59;0.70;;;0.70;;
79670;SDS011;69137;50.878;8.050;2024-03-23T04:41:25;0.95;;;0.60;;
79670;SDS011;69137;50.878;8.050;2024-03-23T04:43:51;1.20;;;0.90;;
79670;SDS011;69137;50.878;8.050;2024-03-23T04:46:16;1.97;;;0.70;;
79670;SDS011;69137;50.878;8.050;2024-03-23T04:48:41;1.60;;;1.20;;
79670;SDS011;69137;50.878;8.050;2024-03-23T04:51:09;1.80;;;1.08;;
79670;SDS011;69137;50.878;8.050;2024-03-23T04:53:34;3.30;;;1.00;;
79670;SDS011;69137;50.878;8.050;2024-03-23T04:55:59;2.67;;;0.80;;
79670;SDS011;69137;50.878;8.050;2024-03-23T04:58:25;2.63;;;1.67;;
79670;SDS011;69137;50.878;8.050;2024-03-23T05:00:54;1.23;;;0.97;;
79670;SDS011;69137;50.878;8.050;2024-03-23T05:03:20;2.80;;;0.90;;
79670;SDS011;69137;50.878;8.050;2024-03-23T05:05:46;2.17;;;0.98;;
79670;SDS011;69137;50.878;8.050;2024-03-23T05:08:12;2.70;;;1.10;;
79670;SDS011;69137;50.878;8.050;2024-03-23T05:10:37;3.95;;;1.38;;
79670;SDS011;69137;50.878;8.050;2024-03-23T05:13:03;4.23;;;1.23;;
79670;SDS011;69137;50.878;8.050;2024-03-23T05:15:28;3.22;;;1.27;;
79670;SDS011;69137;50.878;8.050;2024-03-23T05:17:54;5.53;;;1.20;;
79670;SDS011;69137;50.878;8.050;2024-03-23T05:20:20;2.78;;;1.05;;
79670;SDS011;69137;50.878;8.050;2024-03-23T05:22:46;2.95;;;1.00;;
79670;SDS011;69137;50.878;8.050;2024-03-23T05:25:11;2.47;;;1.30;;
79670;SDS011;69137;50.878;8.050;2024-03-23T05:27:37;3.25;;;1.42;;
79670;SDS011;69137;50.878;8.050;2024-03-23T05:30:02;5.07;;;0.98;;
79670;SDS011;69137;50.878;8.050;2024-03-23T05:32:28;3.25;;;0.98;;
79670;SDS011;69137;50.878;8.050;2024-03-23T05:34:54;4.65;;;1.50;;
79670;SDS011;69137;50.878;8.050;2024-03-23T05:37:24;2.80;;;1.20;;
79670;SDS011;69137;50.878;8.050;2024-03-23T05:39:50;4.55;;;1.45;;
79670;SDS011;69137;50.878;8.050;2024-03-23T05:42:16;3.47;;;1.42;;
79670;SDS011;69137;50.878;8.050;2024-03-23T05:44:45;2.85;;;1.50;;
79670;SDS011;69137;50.878;8.050;2024-03-23T05:47:10;3.08;;;1.25;;
79670;SDS011;69137;50.878;8.050;2024-03-23T05:49:38;2.50;;;1.38;;
79670;SDS011;69137;50.878;8.050;2024-03-23T05:52:03;4.10;;;1.27;;
79670;SDS011;69137;50.878;8.050;2024-03-23T05:54:29;6.80;;;1.55;;
79670;SDS011;69137;50.878;8.050;2024-03-23T05:56:55;3.40;;;1.30;;
79670;SDS011;69137;50.878;8.050;2024-03-23T05:59:20;2.92;;;1.33;;
79670;SDS011;69137;50.878;8.050;2024-03-23T06:01:46;2.80;;;1.30;;
79670;SDS011;69137;50.878;8.050;2024-03-23T06:04:12;3.40;;;1.20;;
79670;SDS011;69137;50.878;8.050;2024-03-23T06:06:38;3.78;;;1.77;;
79670;SDS011;69137;50.878;8.050;2024-03-23T06:09:04;4.65;;;1.50;;
79670;SDS011;69137;50.878;8.050;2024-03-23T06:11:29;6.10;;;1.90;;
79670;SDS011;69137;50.878;8.050;2024-03-23T06:13:55;7.47;;;2.77;;
79670;SDS011;69137;50.878;8.050;2024-03-23T06:16:21;4.45;;;1.70;;
79670;SDS011;69137;50.878;8.050;2024-03-23T06:18:48;3.90;;;1.65;;
79670;SDS011;69137;50.878;8.050;2024-03-23T06:21:14;5.55;;;1.92;;
79670;SDS011;69137;50.878;8.050;2024-03-23T06:23:40;7.10;;;1.70;;
79670;SDS011;69137;50.878;8.050;2024-03-23T06:26:15;3.88;;;1.63;;
79670;SDS011;69137;50.878;8.050;2024-03-23T06:28:41;5.28;;;2.03;;
79670;SDS011;69137;50.878;8.050;2024-03-23T06:31:08;3.83;;;1.70;;
79670;SDS011;69137;50.878;8.050;2024-03-23T06:33:34;5.97;;;2.10;;
79670;SDS011;69137;50.878;8.050;2024-03-23T06:35:59;6.30;;;2.03;;
79670;SDS011;69137;50.878;8.050;2024-03-23T06:38:25;6.15;;;2.10;;
79670;SDS011;69137;50.878;8.050;2024-03-23T06:40:50;5.90;;;2.50;;
79670;SDS011;69137;50.878;8.050;2024-03-23T06:43:17;5.57;;;2.75;;
79670;SDS011;69137;50.878;8.050;2024-03-23T06:45:43;7.50;;;2.67;;
79670;SDS011;69137;50.878;8.050;2024-03-23T06:48:08;7.90;;;2.80;;
79670;SDS011;69137;50.878;8.050;2024-03-23T06:50:34;8.63;;;3.60;;
79670;SDS011;69137;50.878;8.050;2024-03-23T06:52:59;7.03;;;3.27;;
79670;SDS011;69137;50.878;8.050;2024-03-23T06:55:26;7.15;;;3.72;;
79670;SDS011;69137;50.878;8.050;2024-03-23T06:57:52;6.57;;;3.95;;
79670;SDS011;69137;50.878;8.050;2024-03-23T07:00:18;11.07;;;4.10;;
79670;SDS011;69137;50.878;8.050;2024-03-23T07:02:43;13.57;;;3.90;;
79670;SDS011;69137;50.878;8.050;2024-03-23T07:05:09;9.90;;;3.40;;
79670;SDS011;69137;50.878;8.050;2024-03-23T07:07:35;9.02;;;3.55;;
79670;SDS011;69137;50.878;8.050;2024-03-23T07:10:01;15.80;;;4.10;;
79670;SDS011;69137;50.878;8.050;2024-03-23T07:12:26;5.93;;;3.40;;
79670;SDS011;69137;50.878;8.050;2024-03-23T07:14:51;8.63;;;3.47;;
79670;SDS011;69137;50.878;8.050;2024-03-23T07:17:16;12.37;;;3.83;;
79670;SDS011;69137;50.878;8.050;2024-03-23T07:19:43;12.43;;;3.95;;
79670;SDS011;69137;50.878;8.050;2024-03-23T07:22:08;11.77;;;4.33;;
79670;SDS011;69137;50.878;8.050;2024-03-23T07:24:34;6.03;;;3.85;;
79670;SDS011;69137;50.878;8.050;2024-03-23T07:26:59;13.33;;;4.90;;
79670;SDS011;69137;50.878;8.050;2024-03-23T07:29:28;12.85;;;4.50;;
79670;SDS011;69137;50.878;8.050;2024-03-23T07:31:53;12.50;;;4.70;;
79670;SDS011;69137;50.878;8.050;2024-03-23T07:34:19;12.07;;;4.57;;
79670;SDS011;69137;50.878;8.050;2024-03-23T07:36:47;14.48;;;4.68;;
79670;SDS011;69137;50.878;8.050;2024-03-23T07:39:18;9.10;;;4.72;;
79670;SDS011;69137;50.878;8.050;2024-03-23T07:41:55;18.20;;;6.03;;
79670;SDS011;69137;50.878;8.050;2024-03-23T07:44:20;9.63;;;4.63;;
79670;SDS011;69137;50.878;8.050;2024-03-23T07:46:45;12.70;;;4.53;;
79670;SDS011;69137;50.878;8.050;2024-03-23T07:49:11;16.85;;;4.47;;
79670;SDS011;69137;50.878;8.050;2024-03-23T07:51:39;10.95;;;5.53;;
79670;SDS011;69137;50.878;8.050;2024-03-23T07:54:08;14.43;;;6.22;;
79670;SDS011;69137;50.878;8.050;2024-03-23T07:56:33;11.38;;;5.55;;
79670;SDS011;69137;50.878;8.050;2024-03-23T07:58:59;22.45;;;6.30;;
79670;SDS011;69137;50.878;8.050;2024-03-23T08:01:25;18.90;;;6.82;;
79670;SDS011;69137;50.878;8.050;2024-03-23T08:03:50;14.32;;;5.90;;
79670;SDS011;69137;50.878;8.050;2024-03-23T08:06:19;18.70;;;6.43;;
79670;SDS011;69137;50.878;8.050;2024-03-23T08:08:52;9.20;;;5.65;;
79670;SDS011;69137;50.878;8.050;2024-03-23T08:11:25;11.55;;;6.40;;
79670;SDS011;69137;50.878;8.050;2024-03-23T08:13:55;20.15;;;7.13;;
79670;SDS011;69137;50.878;8.050;2024-03-23T08:16:21;20.17;;;7.85;;
79670;SDS011;69137;50.878;8.050;2024-03-23T08:18:47;23.42;;;8.05;;
79670;SDS011;69137;50.878;8.050;2024-03-23T08:21:18;15.80;;;6.78;;
79670;SDS011;69137;50.878;8.050;2024-03-23T08:23:44;17.48;;;6.45;;
79670;SDS011;69137;50.878;8.050;2024-03-23T08:26:12;13.93;;;6.70;;
79670;SDS011;69137;50.878;8.050;2024-03-23T08:28:39;13.98;;;5.90;;
79670;SDS011;69137;50.878;8.050;2024-03-23T08:31:06;14.70;;;6.93;;
79670;SDS011;69137;50.878;8.050;2024-03-23T08:33:39;10.00;;;5.97;;
79670;SDS011;69137;50.878;8.050;2024-03-23T08:36:13;10.60;;;5.57;;
79670;SDS011;69137;50.878;8.050;2024-03-23T08:38:41;23.77;;;6.57;;
79670;SDS011;69137;50.878;8.050;2024-03-23T08:41:18;23.00;;;8.57;;
79670;SDS011;69137;50.878;8.050;2024-03-23T08:43:44;19.27;;;6.28;;
79670;SDS011;69137;50.878;8.050;2024-03-23T08:46:10;14.25;;;6.00;;
79670;SDS011;69137;50.878;8.050;2024-03-23T08:48:37;11.73;;;5.93;;
79670;SDS011;69137;50.878;8.050;2024-03-23T08:51:04;10.93;;;5.78;;
79670;SDS011;69137;50.878;8.050;2024-03-23T08:53:31;15.38;;;6.50;;
79670;SDS011;69137;50.878;8.050;2024-03-23T08:55:57;13.45;;;5.05;;
79670;SDS011;69137;50.878;8.050;2024-03-23T08:58:26;12.57;;;4.90;;
79670;SDS011;69137;50.878;8.050;2024-03-23T09:00:53;13.55;;;5.18;;
79670;SDS011;69137;50.878;8.050;2024-03-23T09:03:23;23.60;;;7.57;;
79670;SDS011;69137;50.878;8.050;2024-03-23T09:05:49;17.25;;;6.28;;
79670;SDS011;69137;50.878;8.050;2024-03-23T09:08:15;12.48;;;5.22;;
79670;SDS011;69137;50.878;8.050;2024-03-23T09:10:40;14.25;;;5.28;;
79670;SDS011;69137;50.878;8.050;2024-03-23T09:13:06;22.30;;;7.18;;
79670;SDS011;69137;50.878;8.050;2024-03-23T09:15:35;19.50;;;7.33;;
79670;SDS011;69137;50.878;8.050;2024-03-23T09:18:02;15.38;;;7.30;;
79670;SDS011;69137;50.878;8.050;2024-03-23T09:20:28;7.82;;;3.38;;
79670;SDS011;69137;50.878;8.050;2024-03-23T09:22:53;15.40;;;6.15;;
79670;SDS011;69137;50.878;8.050;2024-03-23T09:25:18;22.40;;;5.67;;
79670;SDS011;69137;50.878;8.050;2024-03-23T09:27:47;5.47;;;3.70;;
79670;SDS011;69137;50.878;8.050;2024-03-23T09:30:12;8.93;;;4.47;;
79670;SDS011;69137;50.878;8.050;2024-03-23T09:32:38;10.57;;;4.05;;
79670;SDS011;69137;50.878;8.050;2024-03-23T09:35:04;15.98;;;5.10;;
79670;SDS011;69137;50.878;8.050;2024-03-23T09:37:29;11.70;;;3.80;;
79670;SDS011;69137;50.878;8.050;2024-03-23T09:39:55;11.97;;;4.60;;
79670;SDS011;69137;50.878;8.050;2024-03-23T09:42:20;9.47;;;4.03;;
79670;SDS011;69137;50.878;8.050;2024-03-23T09:44:45;8.90;;;4.33;;
79670;SDS011;69137;50.878;8.050;2024-03-23T09:47:11;12.95;;;4.07;;
79670;SDS011;69137;50.878;8.050;2024-03-23T09:49:37;5.88;;;2.90;;
79670;SDS011;69137;50.878;8.050;2024-03-23T09:52:03;7.78;;;2.97;;
79670;SDS011;69137;50.878;8.050;2024-03-23T09:54:29;7.32;;;3.03;;
79670;SDS011;69137;50.878;8.050;2024-03-23T09:56:54;7.77;;;3.03;;
79670;SDS011;69137;50.878;8.050;2024-03-23T09:59:20;14.60;;;3.28;;
79670;SDS011;69137;50.878;8.050;2024-03-23T10:01:45;13.20;;;2.90;;
79670;SDS011;69137;50.878;8.050;2024-03-23T10:04:10;5.93;;;2.80;;
79670;SDS011;69137;50.878;8.050;2024-03-23T10:06:36;12.80;;;4.35;;
79670;SDS011;69137;50.878;8.050;2024-03-23T10:09:02;6.20;;;3.90;;
79670;SDS011;69137;50.878;8.050;2024-03-23T10:11:42;12.77;;;3.72;;
79670;SDS011;69137;50.878;8.050;2024-03-23T10:14:09;8.43;;;3.78;;
79670;SDS011;69137;50.878;8.050;2024-03-23T10:16:34;8.03;;;4.60;;
79670;SDS011;69137;50.878;8.050;2024-03-23T10:18:59;10.03;;;4.40;;
79670;SDS011;69137;50.878;8.050;2024-03-23T10:21:25;11.13;;;3.40;;
79670;SDS011;69137;50.878;8.050;2024-03-23T10:23:50;9.63;;;3.70;;
79670;SDS011;69137;50.878;8.050;2024-03-23T10:28:59;14.20;;;4.45;;
79670;SDS011;69137;50.878;8.050;2024-03-23T10:31:27;10.27;;;3.20;;
79670;SDS011;69137;50.878;8.050;2024-03-23T10:33:53;11.27;;;3.03;;
79670;SDS011;69137;50.878;8.050;2024-03-23T10:36:20;12.93;;;3.35;;
79670;SDS011;69137;50.878;8.050;2024-03-23T10:38:50;10.98;;;2.92;;
79670;SDS011;69137;50.878;8.050;2024-03-23T10:41:17;5.30;;;2.53;;
79670;SDS011;69137;50.878;8.050;2024-03-23T10:43:44;6.90;;;3.20;;
79670;SDS011;69137;50.878;8.050;2024-03-23T10:46:11;12.60;;;3.08;;
79670;SDS011;69137;50.878;8.050;2024-03-23T10:48:36;4.38;;;1.42;;
79670;SDS011;69137;50.878;8.050;2024-03-23T10:51:03;1.63;;;1.15;;
79670;SDS011;69137;50.878;8.050;2024-03-23T10:53:29;4.05;;;1.70;;
79670;SDS011;69137;50.878;8.050;2024-03-23T10:55:56;2.83;;;1.80;;
79670;SDS011;69137;50.878;8.050;2024-03-23T10:58:38;6.22;;;1.88;;
79670;SDS011;69137;50.878;8.050;2024-03-23T11:01:05;6.25;;;1.75;;
79670;SDS011;69137;50.878;8.050;2024-03-23T11:03:31;5.65;;;2.33;;
79670;SDS011;69137;50.878;8.050;2024-03-23T11:06:04;3.28;;;1.98;;
79670;SDS011;69137;50.878;8.050;2024-03-23T11:08:37;4.20;;;2.90;;
79670;SDS011;69137;50.878;8.050;2024-03-23T11:11:19;11.48;;;2.95;;
79670;SDS011;69137;50.878;8.050;2024-03-23T11:13:49;9.60;;;3.17;;
79670;SDS011;69137;50.878;8.050;2024-03-23T11:16:22;4.90;;;2.42;;
79670;SDS011;69137;50.878;8.050;2024-03-23T11:18:49;6.60;;;2.90;;
79670;SDS011;69137;50.878;8.050;2024-03-23T11:24:16;7.88;;;2.90;;
79670;SDS011;69137;50.878;8.050;2024-03-23T11:26:42;3.33;;;1.93;;
79670;SDS011;69137;50.878;8.050;2024-03-23T11:29:10;5.67;;;3.00;;
79670;SDS011;69137;50.878;8.050;2024-03-23T11:31:38;8.07;;;2.90;;
79670;SDS011;69137;50.878;8.050;2024-03-23T11:34:10;5.45;;;2.50;;
79670;SDS011;69137;50.878;8.050;2024-03-23T11:36:35;11.40;;;2.93;;
79670;SDS011;69137;50.878;8.050;2024-03-23T11:39:11;3.50;;;1.73;;
79670;SDS011;69137;50.878;8.050;2024-03-23T11:44:16;6.90;;;2.42;;
79670;SDS011;69137;50.878;8.050;2024-03-23T11:46:48;6.25;;;1.73;;
79670;SDS011;69137;50.878;8.050;2024-03-23T11:51:49;3.28;;;1.70;;
79670;SDS011;69137;50.878;8.050;2024-03-23T11:54:15;4.40;;;1.98;;
79670;SDS011;69137;50.878;8.050;2024-03-23T11:56:53;5.55;;;1.83;;
79670;SDS011;69137;50.878;8.050;2024-03-23T11:59:39;3.63;;;1.75;;
79670;SDS011;69137;50.878;8.050;2024-03-23T12:02:09;4.60;;;2.10;;
79670;SDS011;69137;50.878;8.050;2024-03-23T12:04:36;3.17;;;1.60;;
79670;SDS011;69137;50.878;8.050;2024-03-23T12:07:18;1.95;;;1.10;;
79670;SDS011;69137;50.878;8.050;2024-03-23T12:09:44;3.05;;;1.55;;
79670;SDS011;69137;50.878;8.050;2024-03-23T12:12:14;3.92;;;1.80;;
79670;SDS011;69137;50.878;8.050;2024-03-23T12:14:41;2.88;;;1.20;;
79670;SDS011;69137;50.878;8.050;2024-03-23T12:17:08;4.57;;;1.75;;
79670;SDS011;69137;50.878;8.050;2024-03-23T12:19:35;3.47;;;1.90;;
79670;SDS011;69137;50.878;8.050;2024-03-23T12:22:00;6.77;;;1.93;;
79670;SDS011;69137;50.878;8.050;2024-03-23T12:24:26;2.45;;;1.02;;
79670;SDS011;69137;50.878;8.050;2024-03-23T12:26:51;2.15;;;1.23;;
79670;SDS011;69137;50.878;8.050;2024-03-23T12:29:16;8.27;;;1.33;;
79670;SDS011;69137;50.878;8.050;2024-03-23T12:31:42;2.17;;;1.30;;
79670;SDS011;69137;50.878;8.050;2024-03-23T12:34:08;5.40;;;1.50;;
79670;SDS011;69137;50.878;8.050;2024-03-23T12:36:33;1.03;;;0.80;;
79670;SDS011;69137;50.878;8.050;2024-03-23T12:38:58;2.60;;;1.60;;
79670;SDS011;69137;50.878;8.050;2024-03-23T12:41:24;1.65;;;1.10;;
79670;SDS011;69137;50.878;8.050;2024-03-23T12:43:49;2.77;;;1.27;;
79670;SDS011;69137;50.878;8.050;2024-03-23T12:46:14;2.80;;;1.40;;
79670;SDS011;69137;50.878;8.050;2024-03-23T12:48:40;6.13;;;1.90;;
79670;SDS011;69137;50.878;8.050;2024-03-23T12:51:07;1.63;;;1.00;;
79670;SDS011;69137;50.878;8.050;2024-03-23T12:53:32;4.50;;;1.67;;
79670;SDS011;69137;50.878;8.050;2024-03-23T12:55:57;2.90;;;1.60;;
79670;SDS011;69137;50.878;8.050;2024-03-23T12:58:23;3.47;;;1.17;;
79670;SDS011;69137;50.878;8.050;2024-03-23T13:00:48;2.53;;;1.30;;
79670;SDS011;69137;50.878;8.050;2024-03-23T13:03:13;4.43;;;1.77;;
79670;SDS011;69137;50.878;8.050;2024-03-23T13:05:40;3.00;;;1.63;;
79670;SDS011;69137;50.878;8.050;2024-03-23T13:08:05;5.50;;;1.80;;
79670;SDS011;69137;50.878;8.050;2024-03-23T13:10:31;10.30;;;1.77;;
79670;SDS011;69137;50.878;8.050;2024-03-23T13:12:56;5.87;;;1.60;;
79670;SDS011;69137;50.878;8.050;2024-03-23T13:15:21;4.90;;;1.60;;
79670;SDS011;69137;50.878;8.050;2024-03-23T13:17:47;2.20;;;1.27;;
79670;SDS011;69137;50.878;8.050;2024-03-23T13:20:12;1.47;;;1.03;;
79670;SDS011;69137;50.878;8.050;2024-03-23T13:22:39;3.60;;;1.20;;
79670;SDS011;69137;50.878;8.050;2024-03-23T13:25:05;3.40;;;1.38;;
79670;SDS011;69137;50.878;8.050;2024-03-23T13:27:31;2.35;;;1.30;;
79670;SDS011;69137;50.878;8.050;2024-03-23T13:29:56;3.23;;;1.60;;
79670;SDS011;69137;50.878;8.050;2024-03-23T13:32:21;2.17;;;1.47;;
79670;SDS011;69137;50.878;8.050;2024-03-23T13:34:46;3.00;;;1.23;;
79670;SDS011;69137;50.878;8.050;2024-03-23T13:39:40;4.30;;;1.43;;
79670;SDS011;69137;50.878;8.050;2024-03-23T13:42:06;1.92;;;1.27;;
79670;SDS011;69137;50.878;8.050;2024-03-23T13:44:34;4.85;;;1.92;;
79670;SDS011;69137;50.878;8.050;2024-03-23T13:46:59;2.38;;;1.20;;
79670;SDS011;69137;50.878;8.050;2024-03-23T13:49:28;3.50;;;1.58;;
79670;SDS011;69137;50.878;8.050;2024-03-23T13:51:59;2.40;;;1.35;;
79670;SDS011;69137;50.878;8.050;2024-03-23T13:54:26;5.63;;;2.08;;
79670;SDS011;69137;50.878;8.050;2024-03-23T13:56:52;4.93;;;1.98;;
79670;SDS011;69137;50.878;8.050;2024-03-23T13:59:19;4.93;;;1.75;;
79670;SDS011;69137;50.878;8.050;2024-03-23T14:01:46;2.70;;;1.80;;
79670;SDS011;69137;50.878;8.050;2024-03-23T14:04:12;7.10;;;1.95;;
79670;SDS011;69137;50.878;8.050;2024-03-23T14:06:37;4.97;;;1.65;;
79670;SDS011;69137;50.878;8.050;2024-03-23T14:09:03;5.18;;;1.95;;
79670;SDS011;69137;50.878;8.050;2024-03-23T14:11:28;3.78;;;2.10;;
79670;SDS011;69137;50.878;8.050;2024-03-23T14:13:54;7.78;;;2.33;;
79670;SDS011;69137;50.878;8.050;2024-03-23T14:16:19;2.05;;;1.58;;
79670;SDS011;69137;50.878;8.050;2024-03-23T14:18:48;3.58;;;2.25;;
79670;SDS011;69137;50.878;8.050;2024-03-23T14:21:13;5.47;;;2.50;;
79670;SDS011;69137;50.878;8.050;2024-03-23T14:23:38;6.30;;;1.90;;
79670;SDS011;69137;50.878;8.050;2024-03-23T14:26:06;3.22;;;1.73;;
79670;SDS011;69137;50.878;8.050;2024-03-23T14:28:31;2.28;;;1.65;;
79670;SDS011;69137;50.878;8.050;2024-03-23T14:30:57;6.23;;;2.33;;
79670;SDS011;69137;50.878;8.050;2024-03-23T14:33:22;6.18;;;2.33;;
79670;SDS011;69137;50.878;8.050;2024-03-23T14:35:52;3.63;;;2.30;;
79670;SDS011;69137;50.878;8.050;2024-03-23T14:38:18;4.45;;;1.98;;
79670;SDS011;69137;50.878;8.050;2024-03-23T14:40:45;5.75;;;1.70;;
79670;SDS011;69137;50.878;8.050;2024-03-23T14:43:10;4.43;;;2.20;;
79670;SDS011;69137;50.878;8.050;2024-03-23T14:45:36;3.70;;;1.77;;
79670;SDS011;69137;50.878;8.050;2024-03-23T14:48:01;5.07;;;2.03;;
79670;SDS011;69137;50.878;8.050;2024-03-23T14:50:27;2.28;;;1.60;;
79670;SDS011;69137;50.878;8.050;2024-03-23T14:52:52;6.87;;;2.10;;
79670;SDS011;69137;50.878;8.050;2024-03-23T14:55:18;6.00;;;2.10;;
79670;SDS011;69137;50.878;8.050;2024-03-23T14:57:44;7.18;;;2.00;;
79670;SDS011;69137;50.878;8.050;2024-03-23T15:00:09;5.07;;;2.70;;
79670;SDS011;69137;50.878;8.050;2024-03-23T15:02:39;5.18;;;2.00;;
79670;SDS011;69137;50.878;8.050;2024-03-23T15:05:05;4.30;;;2.20;;
79670;SDS011;69137;50.878;8.050;2024-03-23T15:07:34;3.88;;;2.13;;
79670;SDS011;69137;50.878;8.050;2024-03-23T15:09:59;2.57;;;1.63;;
79670;SDS011;69137;50.878;8.050;2024-03-23T15:12:24;7.77;;;2.33;;
79670;SDS011;69137;50.878;8.050;2024-03-23T15:14:49;4.60;;;1.63;;
79670;SDS011;69137;50.878;8.050;2024-03-23T15:17:15;4.97;;;2.03;;
79670;SDS011;69137;50.878;8.050;2024-03-23T15:19:40;2.53;;;1.73;;
79670;SDS011;69137;50.878;8.050;2024-03-23T15:22:07;4.20;;;2.15;;
79670;SDS011;69137;50.878;8.050;2024-03-23T15:24:33;4.22;;;2.08;;
79670;SDS011;69137;50.878;8.050;2024-03-23T15:27:00;3.40;;;1.40;;
79670;SDS011;69137;50.878;8.050;2024-03-23T15:29:25;4.17;;;1.80;;
79670;SDS011;69137;50.878;8.050;2024-03-23T15:31:50;4.43;;;1.90;;
79670;SDS011;69137;50.878;8.050;2024-03-23T15:34:17;2.35;;;1.10;;
79670;SDS011;69137;50.878;8.050;2024-03-23T15:36:47;2.42;;;1.45;;
79670;SDS011;69137;50.878;8.050;2024-03-23T15:39:15;2.58;;;1.33;;
79670;SDS011;69137;50.878;8.050;2024-03-23T15:41:40;4.57;;;2.00;;
79670;SDS011;69137;50.878;8.050;2024-03-23T15:44:06;4.13;;;1.30;;
79670;SDS011;69137;50.878;8.050;2024-03-23T15:46:31;4.47;;;1.70;;